Time;durP1;ratioP1;P1;durP2;ratioP2;P2;SDS_P1;SDS_P2;PMS_P1;PMS_P2;Temp;Humidity;BMP_temperature;BMP_pressure;BME280_temperature;BME280_humidity;BME280_pressure;Samples;Min_cycle;Max_cycle;Signal;HPM_P1;HPM_P2
2023/07/23 00:01:47;;;;;;;4.93;0.80;;;;;;;;;;5053074;28;20506;-68
2023/07/23 00:04:14;;;;;;;4.50;0.80;;;;;;;;;;5068050;28;20046;-68
2023/07/23 00:06:43;;;;;;;6.25;0.90;;;;;;;;;;5055361;28;20132;-68
2023/07/23 00:09:13;;;;;;;6.83;1.07;;;;;;;;;;5056584;28;20044;-68
2023/07/23 00:11:41;;;;;;;5.10;0.70;;;;;;;;;;5057037;28;20047;-67
2023/07/23 00:14:09;;;;;;;5.80;0.90;;;;;;;;;;5064105;28;20440;-68
2023/07/23 00:16:37;;;;;;;5.10;1.00;;;;;;;;;;5055386;28;20055;-68
2023/07/23 00:19:05;;;;;;;6.00;0.93;;;;;;;;;;5040948;28;20123;-68
2023/07/23 00:21:33;;;;;;;5.60;1.30;;;;;;;;;;5052355;28;20555;-68
2023/07/23 00:24:04;;;;;;;5.35;0.98;;;;;;;;;;5061948;28;20418;-68
2023/07/23 00:26:33;;;;;;;5.13;1.13;;;;;;;;;;5050162;28;20754;-68
2023/07/23 00:29:01;;;;;;;5.40;1.15;;;;;;;;;;5059464;28;20544;-68
2023/07/23 00:31:29;;;;;;;5.18;1.20;;;;;;;;;;5060181;28;20044;-67
2023/07/23 00:33:57;;;;;;;6.40;1.33;;;;;;;;;;5063473;28;20139;-62
2023/07/23 00:36:25;;;;;;;6.20;1.58;;;;;;;;;;5063147;28;20425;-67
2023/07/23 00:38:53;;;;;;;4.38;0.88;;;;;;;;;;5069315;28;20421;-67
2023/07/23 00:41:21;;;;;;;9.23;1.73;;;;;;;;;;5059401;28;20087;-68
2023/07/23 00:43:50;;;;;;;6.65;1.20;;;;;;;;;;5064044;28;20067;-68
2023/07/23 00:46:18;;;;;;;4.73;0.77;;;;;;;;;;5063132;28;20383;-67
2023/07/23 00:48:50;;;;;;;5.28;1.15;;;;;;;;;;5043236;28;20528;-69
2023/07/23 00:51:18;;;;;;;4.00;1.23;;;;;;;;;;5067415;28;20140;-67
2023/07/23 00:53:45;;;;;;;7.55;1.50;;;;;;;;;;5054589;28;20505;-68
2023/07/23 00:56:15;;;;;;;7.78;1.30;;;;;;;;;;5064231;28;20139;-67
2023/07/23 00:58:43;;;;;;;5.97;1.33;;;;;;;;;;5051111;28;20059;-68
2023/07/23 01:01:15;;;;;;;5.35;1.40;;;;;;;;;;5052638;28;20051;-67
2023/07/23 01:03:43;;;;;;;7.75;1.40;;;;;;;;;;5066412;28;20044;-67
2023/07/23 01:06:12;;;;;;;4.80;1.00;;;;;;;;;;5059186;28;20123;-66
2023/07/23 01:08:42;;;;;;;6.38;1.30;;;;;;;;;;5064253;28;20056;-66
2023/07/23 01:11:10;;;;;;;6.93;0.93;;;;;;;;;;5029864;28;20930;-67
2023/07/23 01:13:38;;;;;;;6.85;1.33;;;;;;;;;;5068415;28;20048;-66
2023/07/23 01:16:07;;;;;;;5.95;1.38;;;;;;;;;;5058534;28;20041;-67
2023/07/23 01:18:37;;;;;;;9.13;1.20;;;;;;;;;;5065276;28;20052;-67
2023/07/23 01:21:05;;;;;;;5.13;1.08;;;;;;;;;;5057628;28;20076;-67
2023/07/23 01:23:34;;;;;;;4.93;1.23;;;;;;;;;;5061060;28;20040;-67
2023/07/23 01:26:02;;;;;;;7.40;1.40;;;;;;;;;;5063164;28;20055;-68
2023/07/23 01:28:30;;;;;;;4.47;1.00;;;;;;;;;;5063178;28;20044;-67
2023/07/23 01:30:57;;;;;;;5.63;1.48;;;;;;;;;;5057855;28;20817;-62
2023/07/23 01:33:28;;;;;;;7.05;1.30;;;;;;;;;;5062685;28;20048;-68
2023/07/23 01:35:56;;;;;;;4.87;1.10;;;;;;;;;;5070908;28;20052;-67
2023/07/23 01:38:25;;;;;;;5.70;1.40;;;;;;;;;;5057685;28;20309;-67
2023/07/23 01:40:54;;;;;;;6.25;1.00;;;;;;;;;;5063782;28;20048;-67
2023/07/23 01:43:24;;;;;;;6.97;0.93;;;;;;;;;;5031155;28;20052;-67
2023/07/23 01:45:55;;;;;;;6.20;1.55;;;;;;;;;;5049496;28;20044;-67
2023/07/23 01:48:24;;;;;;;7.83;1.60;;;;;;;;;;5056441;28;20052;-67
2023/07/23 01:50:52;;;;;;;4.93;1.23;;;;;;;;;;5055900;28;20048;-68
2023/07/23 01:53:19;;;;;;;8.05;1.50;;;;;;;;;;5075010;28;20044;-67
2023/07/23 01:55:51;;;;;;;4.97;1.38;;;;;;;;;;5047874;28;20192;-67
2023/07/23 01:58:21;;;;;;;5.45;1.27;;;;;;;;;;5050260;28;20049;-67
2023/07/23 02:00:49;;;;;;;7.53;1.40;;;;;;;;;;5055747;28;20113;-67
2023/07/23 02:03:17;;;;;;;6.15;1.40;;;;;;;;;;5038351;28;20116;-67
2023/07/23 02:05:54;;;;;;;5.38;1.00;;;;;;;;;;5057107;28;20049;-67
2023/07/23 02:08:22;;;;;;;4.25;0.95;;;;;;;;;;5057328;28;20127;-66
2023/07/23 02:10:50;;;;;;;5.28;1.45;;;;;;;;;;5070092;28;20048;-67
2023/07/23 02:13:17;;;;;;;5.27;0.97;;;;;;;;;;5032863;28;20049;-69
2023/07/23 02:15:47;;;;;;;5.18;1.17;;;;;;;;;;5062946;28;20045;-67
2023/07/23 02:18:15;;;;;;;5.15;1.27;;;;;;;;;;5062231;28;20051;-68
2023/07/23 02:20:42;;;;;;;3.85;0.80;;;;;;;;;;5065746;28;20052;-67
2023/07/23 02:23:10;;;;;;;4.82;1.00;;;;;;;;;;5046748;28;20063;-67
2023/07/23 02:25:39;;;;;;;5.40;1.17;;;;;;;;;;5071800;28;20052;-65
2023/07/23 02:28:09;;;;;;;5.97;0.98;;;;;;;;;;5065840;28;20048;-68
2023/07/23 02:30:36;;;;;;;4.85;0.70;;;;;;;;;;5059355;28;20140;-67
2023/07/23 02:33:06;;;;;;;4.90;1.02;;;;;;;;;;5060215;28;20052;-67
2023/07/23 02:35:36;;;;;;;5.78;0.95;;;;;;;;;;5069369;28;20082;-68
2023/07/23 02:38:03;;;;;;;4.00;0.90;;;;;;;;;;5042097;28;20495;-68
2023/07/23 02:40:32;;;;;;;3.63;0.73;;;;;;;;;;5072455;28;20044;-67
2023/07/23 02:43:00;;;;;;;3.97;0.70;;;;;;;;;;5060514;28;20490;-68
2023/07/23 02:45:29;;;;;;;4.07;0.77;;;;;;;;;;5064512;28;20614;-68
2023/07/23 02:47:57;;;;;;;5.05;0.70;;;;;;;;;;5059933;28;20040;-68
2023/07/23 02:50:27;;;;;;;4.00;0.77;;;;;;;;;;5054333;28;20567;-68
2023/07/23 02:52:54;;;;;;;5.50;0.93;;;;;;;;;;5070899;28;20142;-67
2023/07/23 02:55:24;;;;;;;3.88;0.80;;;;;;;;;;5064139;28;20205;-68
2023/07/23 02:57:52;;;;;;;4.03;1.00;;;;;;;;;;5057393;28;20374;-68
2023/07/23 03:00:20;;;;;;;4.10;0.90;;;;;;;;;;5061651;28;20078;-68
2023/07/23 03:02:48;;;;;;;4.23;0.90;;;;;;;;;;5074248;28;20658;-68
2023/07/23 03:05:16;;;;;;;3.47;0.80;;;;;;;;;;5056505;28;20322;-68
2023/07/23 03:07:45;;;;;;;5.22;0.85;;;;;;;;;;5059082;28;20048;-68
2023/07/23 03:10:13;;;;;;;4.80;0.90;;;;;;;;;;5059516;28;20056;-67
2023/07/23 03:12:40;;;;;;;4.45;0.82;;;;;;;;;;5072958;28;20498;-67
2023/07/23 03:15:08;;;;;;;5.23;0.70;;;;;;;;;;5062797;28;20625;-68
2023/07/23 03:17:36;;;;;;;4.60;1.00;;;;;;;;;;5074477;28;20054;-68
2023/07/23 03:20:04;;;;;;;5.00;1.30;;;;;;;;;;5037616;28;20048;-67
2023/07/23 03:22:32;;;;;;;6.03;1.13;;;;;;;;;;5057902;28;20387;-68
2023/07/23 03:25:01;;;;;;;6.85;1.67;;;;;;;;;;5036853;28;20181;-67
2023/07/23 03:27:29;;;;;;;5.90;1.53;;;;;;;;;;5046020;28;20036;-68
2023/07/23 03:29:56;;;;;;;6.25;1.40;;;;;;;;;;5048889;28;20056;-67
2023/07/23 03:32:25;;;;;;;5.75;1.40;;;;;;;;;;5071890;28;20482;-67
2023/07/23 03:34:57;;;;;;;5.18;1.38;;;;;;;;;;5069868;28;20561;-68
2023/07/23 03:37:25;;;;;;;8.88;1.85;;;;;;;;;;5059343;28;20040;-67
2023/07/23 03:39:52;;;;;;;5.17;1.53;;;;;;;;;;5065636;28;20136;-68
2023/07/23 03:42:21;;;;;;;5.45;1.55;;;;;;;;;;5063959;28;20058;-66
2023/07/23 03:44:49;;;;;;;4.40;1.20;;;;;;;;;;4702148;28;10000328;-68
2023/07/23 03:47:17;;;;;;;5.33;1.40;;;;;;;;;;5045710;28;21192;-68
2023/07/23 03:49:45;;;;;;;5.68;1.40;;;;;;;;;;5051800;28;20063;-67
2023/07/23 03:52:13;;;;;;;4.80;1.27;;;;;;;;;;5058028;28;20052;-67
2023/07/23 03:54:41;;;;;;;5.95;1.80;;;;;;;;;;5060230;28;20047;-67
2023/07/23 03:57:09;;;;;;;4.85;1.52;;;;;;;;;;5025328;28;20667;-67
2023/07/23 03:59:39;;;;;;;6.17;1.53;;;;;;;;;;5029319;28;20048;-67
2023/07/23 04:02:07;;;;;;;7.63;1.92;;;;;;;;;;5059630;28;20068;-67
2023/07/23 04:04:35;;;;;;;6.75;1.38;;;;;;;;;;5057388;28;20173;-68
2023/07/23 04:07:04;;;;;;;5.90;1.70;;;;;;;;;;5066883;28;20453;-68
2023/07/23 04:09:31;;;;;;;7.47;2.05;;;;;;;;;;5043148;28;20129;-68
2023/07/23 04:11:59;;;;;;;8.10;2.50;;;;;;;;;;5070611;28;20055;-68
2023/07/23 04:14:27;;;;;;;7.67;1.90;;;;;;;;;;5062355;28;20051;-67
2023/07/23 04:16:56;;;;;;;5.75;1.90;;;;;;;;;;5062478;28;20135;-67
2023/07/23 04:19:24;;;;;;;7.10;2.10;;;;;;;;;;5047264;28;20044;-68
2023/07/23 04:21:52;;;;;;;6.50;1.50;;;;;;;;;;5064307;28;20516;-68
2023/07/23 04:24:22;;;;;;;7.22;1.75;;;;;;;;;;5073628;28;20059;-67
2023/07/23 04:26:51;;;;;;;10.07;2.00;;;;;;;;;;5067724;28;20117;-68
2023/07/23 04:29:19;;;;;;;6.95;1.73;;;;;;;;;;5061417;28;20048;-67
2023/07/23 04:31:46;;;;;;;6.63;2.15;;;;;;;;;;5066683;28;20045;-67
2023/07/23 04:34:15;;;;;;;8.35;2.50;;;;;;;;;;5051412;28;20048;-68
2023/07/23 04:36:43;;;;;;;6.55;2.00;;;;;;;;;;5061342;28;20506;-68
2023/07/23 04:39:11;;;;;;;6.40;2.40;;;;;;;;;;5069628;28;20044;-68
2023/07/23 04:41:39;;;;;;;7.30;1.63;;;;;;;;;;5061957;28;20036;-67
2023/07/23 04:44:07;;;;;;;8.63;2.33;;;;;;;;;;5076277;28;20050;-68
2023/07/23 04:46:34;;;;;;;8.18;2.20;;;;;;;;;;5057062;28;20131;-68
2023/07/23 04:49:02;;;;;;;7.32;1.92;;;;;;;;;;5068270;28;20891;-68
2023/07/23 04:51:31;;;;;;;11.27;1.90;;;;;;;;;;5057201;28;20044;-68
2023/07/23 04:54:00;;;;;;;6.38;2.13;;;;;;;;;;5066420;28;20545;-69
2023/07/23 04:56:28;;;;;;;6.70;2.00;;;;;;;;;;5061080;28;20048;-69
2023/07/23 04:58:58;;;;;;;8.13;1.92;;;;;;;;;;5070140;28;20072;-68
2023/07/23 05:01:26;;;;;;;9.63;2.30;;;;;;;;;;5067902;28;20055;-69
2023/07/23 05:03:55;;;;;;;6.13;1.47;;;;;;;;;;5058990;28;20047;-69
2023/07/23 05:06:24;;;;;;;6.80;1.92;;;;;;;;;;5051654;28;20040;-68
2023/07/23 05:08:53;;;;;;;6.57;1.98;;;;;;;;;;5043870;28;20060;-67
2023/07/23 05:11:21;;;;;;;5.60;1.50;;;;;;;;;;5067941;28;20060;-68
2023/07/23 05:13:48;;;;;;;6.38;1.90;;;;;;;;;;5053254;28;20048;-68
2023/07/23 05:16:16;;;;;;;6.47;2.03;;;;;;;;;;5073437;28;20044;-68
2023/07/23 05:18:44;;;;;;;8.65;2.17;;;;;;;;;;5055260;28;20051;-70
2023/07/23 05:21:12;;;;;;;7.03;2.30;;;;;;;;;;5060314;28;20044;-68
2023/07/23 05:23:39;;;;;;;8.70;2.15;;;;;;;;;;5062093;28;20048;-66
2023/07/23 05:26:08;;;;;;;6.32;1.73;;;;;;;;;;5051892;28;20506;-68
2023/07/23 05:28:36;;;;;;;7.87;2.00;;;;;;;;;;5067948;28;20054;-68
2023/07/23 05:31:04;;;;;;;8.90;1.67;;;;;;;;;;5062751;28;20514;-67
2023/07/23 05:33:31;;;;;;;7.38;2.00;;;;;;;;;;5062359;28;20143;-67
2023/07/23 05:35:59;;;;;;;5.72;1.80;;;;;;;;;;5064775;28;22314;-67
2023/07/23 05:38:27;;;;;;;6.35;1.80;;;;;;;;;;5043894;28;20068;-68
2023/07/23 05:40:55;;;;;;;8.30;2.17;;;;;;;;;;5060019;28;20055;-67
2023/07/23 05:43:25;;;;;;;5.75;1.63;;;;;;;;;;5063469;28;20048;-68
2023/07/23 05:46:00;;;;;;;6.88;2.30;;;;;;;;;;5057017;28;20163;-67
2023/07/23 05:48:28;;;;;;;5.90;1.80;;;;;;;;;;5072805;28;20046;-68
2023/07/23 05:50:55;;;;;;;9.38;1.65;;;;;;;;;;5056363;28;20052;-67
2023/07/23 05:53:24;;;;;;;10.20;2.07;;;;;;;;;;5056307;28;20045;-67
2023/07/23 05:55:52;;;;;;;6.25;2.08;;;;;;;;;;5053291;28;20529;-67
2023/07/23 05:58:20;;;;;;;8.45;1.70;;;;;;;;;;5052100;28;20051;-68
2023/07/23 06:00:49;;;;;;;8.05;2.20;;;;;;;;;;5065998;28;20048;-68
2023/07/23 06:03:16;;;;;;;9.52;2.00;;;;;;;;;;5061107;28;20129;-67
2023/07/23 06:05:44;;;;;;;7.93;1.87;;;;;;;;;;5051707;28;20054;-68
2023/07/23 06:08:12;;;;;;;8.52;2.13;;;;;;;;;;5050777;28;20059;-68
2023/07/23 06:10:40;;;;;;;6.30;1.90;;;;;;;;;;5054668;28;20798;-67
2023/07/23 06:13:08;;;;;;;6.63;1.52;;;;;;;;;;5068489;28;20051;-67
2023/07/23 06:15:36;;;;;;;8.40;1.88;;;;;;;;;;5056009;28;20059;-67
2023/07/23 06:18:05;;;;;;;6.27;1.77;;;;;;;;;;5070735;28;20056;-68
2023/07/23 06:20:32;;;;;;;5.25;1.52;;;;;;;;;;5054154;28;20048;-67
2023/07/23 06:23:01;;;;;;;7.80;1.70;;;;;;;;;;5050446;28;20360;-67
2023/07/23 06:25:29;;;;;;;6.88;1.80;;;;;;;;;;5061908;28;20048;-67
2023/07/23 06:27:56;;;;;;;5.70;1.55;;;;;;;;;;5061719;28;20123;-67
2023/07/23 06:30:24;;;;;;;6.83;1.20;;;;;;;;;;5063597;28;20055;-67
2023/07/23 06:32:52;;;;;;;5.57;1.33;;;;;;;;;;5061788;28;20048;-69
2023/07/23 06:35:21;;;;;;;5.38;1.40;;;;;;;;;;5061536;28;20048;-66
2023/07/23 06:37:50;;;;;;;4.75;1.40;;;;;;;;;;5059270;28;20055;-67
2023/07/23 06:40:17;;;;;;;6.57;1.20;;;;;;;;;;5067053;28;20055;-67
2023/07/23 06:42:45;;;;;;;3.87;0.90;;;;;;;;;;5035599;28;20136;-67
2023/07/23 06:45:13;;;;;;;5.80;0.70;;;;;;;;;;5064523;28;20056;-66
2023/07/23 06:47:41;;;;;;;4.88;0.90;;;;;;;;;;5050752;28;20044;-67
2023/07/23 06:50:09;;;;;;;3.92;1.00;;;;;;;;;;5064089;28;20059;-67
2023/07/23 06:52:38;;;;;;;3.60;0.65;;;;;;;;;;5054651;28;20050;-67
2023/07/23 06:55:06;;;;;;;5.20;0.70;;;;;;;;;;5041329;28;20052;-67
2023/07/23 06:57:34;;;;;;;3.70;0.43;;;;;;;;;;5067199;28;20127;-69
2023/07/23 07:00:02;;;;;;;4.38;1.23;;;;;;;;;;5055725;28;20043;-67
2023/07/23 07:02:30;;;;;;;6.13;0.80;;;;;;;;;;5069162;28;20139;-69
2023/07/23 07:04:57;;;;;;;4.18;0.73;;;;;;;;;;5033955;28;20505;-69
2023/07/23 07:07:25;;;;;;;3.63;0.80;;;;;;;;;;5050896;28;20036;-69
2023/07/23 07:09:54;;;;;;;6.07;0.93;;;;;;;;;;5056061;28;20075;-68
2023/07/23 07:12:22;;;;;;;3.70;0.90;;;;;;;;;;5039559;28;20048;-67
2023/07/23 07:14:50;;;;;;;3.92;1.10;;;;;;;;;;5068788;28;20047;-67
2023/07/23 07:17:17;;;;;;;3.55;0.90;;;;;;;;;;5054742;28;20589;-67
2023/07/23 07:19:45;;;;;;;3.80;1.10;;;;;;;;;;5060262;28;20040;-67
2023/07/23 07:22:13;;;;;;;4.25;0.90;;;;;;;;;;5059357;28;20074;-67
2023/07/23 07:24:40;;;;;;;3.80;1.10;;;;;;;;;;5064006;28;20653;-67
2023/07/23 07:27:10;;;;;;;5.18;1.10;;;;;;;;;;5058662;28;20055;-67
2023/07/23 07:29:40;;;;;;;4.15;0.65;;;;;;;;;;5055372;28;20051;-65
2023/07/23 07:32:08;;;;;;;4.20;1.30;;;;;;;;;;5061778;28;20101;-67
2023/07/23 07:34:36;;;;;;;5.15;1.65;;;;;;;;;;5058522;28;20040;-68
2023/07/23 07:37:04;;;;;;;4.75;1.38;;;;;;;;;;5064854;28;20047;-67
2023/07/23 07:39:33;;;;;;;3.65;0.93;;;;;;;;;;5057461;28;20040;-68
2023/07/23 07:42:00;;;;;;;4.90;1.05;;;;;;;;;;5063717;28;20044;-67
2023/07/23 07:44:31;;;;;;;4.00;1.00;;;;;;;;;;5063184;28;20048;-67
2023/07/23 07:47:00;;;;;;;4.43;0.95;;;;;;;;;;5042275;28;20052;-67
2023/07/23 07:49:28;;;;;;;4.25;0.90;;;;;;;;;;5063901;28;20044;-67
2023/07/23 07:51:55;;;;;;;6.60;1.00;;;;;;;;;;5054601;28;20133;-67
2023/07/23 07:54:23;;;;;;;6.00;1.00;;;;;;;;;;5025752;28;20084;-67
2023/07/23 07:56:51;;;;;;;6.87;1.20;;;;;;;;;;5004181;28;20518;-67
2023/07/23 07:59:19;;;;;;;4.72;1.02;;;;;;;;;;5024483;28;20045;-66
2023/07/23 08:01:49;;;;;;;6.25;1.38;;;;;;;;;;5022421;28;20040;-69
2023/07/23 08:04:16;;;;;;;4.80;0.75;;;;;;;;;;5019969;28;20255;-71
2023/07/23 08:06:47;;;;;;;5.00;1.35;;;;;;;;;;5011675;28;20081;-67
2023/07/23 08:09:17;;;;;;;7.27;1.03;;;;;;;;;;5013906;28;21040;-69
2023/07/23 08:11:45;;;;;;;6.13;1.40;;;;;;;;;;5025082;28;20057;-67
2023/07/23 08:14:14;;;;;;;5.53;1.02;;;;;;;;;;5024512;28;20832;-67
2023/07/23 08:16:42;;;;;;;5.68;1.35;;;;;;;;;;5026234;28;20041;-69
2023/07/23 08:19:12;;;;;;;9.00;1.48;;;;;;;;;;5014324;28;20053;-68
2023/07/23 08:21:40;;;;;;;5.93;1.40;;;;;;;;;;5025224;28;20190;-68
2023/07/23 08:24:08;;;;;;;5.68;1.50;;;;;;;;;;5018649;28;20156;-68
2023/07/23 08:26:39;;;;;;;5.15;1.52;;;;;;;;;;5020331;28;20495;-68
2023/07/23 08:29:09;;;;;;;7.90;1.30;;;;;;;;;;5022040;28;20132;-67
2023/07/23 08:31:38;;;;;;;6.47;1.50;;;;;;;;;;5017703;28;20041;-67
2023/07/23 08:34:06;;;;;;;6.47;0.93;;;;;;;;;;4675032;28;9999995;-69
2023/07/23 08:36:37;;;;;;;5.22;1.38;;;;;;;;;;5017699;28;20068;-67
2023/07/23 08:39:05;;;;;;;6.30;1.08;;;;;;;;;;5017647;28;20049;-67
2023/07/23 08:41:36;;;;;;;8.27;1.25;;;;;;;;;;5020875;28;20502;-67
2023/07/23 08:44:25;;;;;;;6.10;1.35;;;;;;;;;;5021953;28;20052;-67
2023/07/23 08:46:58;;;;;;;4.83;1.07;;;;;;;;;;5018091;28;20049;-67
2023/07/23 08:49:26;;;;;;;7.32;1.52;;;;;;;;;;5027880;28;20141;-66
2023/07/23 08:51:57;;;;;;;7.13;1.30;;;;;;;;;;4720924;28;10000942;-66
2023/07/23 08:54:24;;;;;;;5.55;1.50;;;;;;;;;;5010749;28;20639;-67
2023/07/23 08:56:54;;;;;;;6.82;1.23;;;;;;;;;;5027271;28;20060;-67
2023/07/23 08:59:22;;;;;;;4.85;1.10;;;;;;;;;;5020333;28;20604;-68
2023/07/23 09:01:50;;;;;;;5.80;1.50;;;;;;;;;;5027274;28;20488;-68
2023/07/23 09:04:18;;;;;;;10.10;1.40;;;;;;;;;;5007916;28;20643;-66
2023/07/23 09:06:52;;;;;;;6.13;1.50;;;;;;;;;;5017072;28;20056;-67
2023/07/23 09:09:21;;;;;;;4.88;1.48;;;;;;;;;;5015577;28;20799;-68
2023/07/23 09:11:49;;;;;;;5.82;1.98;;;;;;;;;;5025439;28;20045;-68
2023/07/23 09:14:17;;;;;;;6.85;1.75;;;;;;;;;;5004972;28;20044;-67
2023/07/23 09:16:45;;;;;;;7.80;1.80;;;;;;;;;;5025369;28;20073;-68
2023/07/23 09:19:14;;;;;;;6.00;1.52;;;;;;;;;;5019944;28;20136;-68
2023/07/23 09:21:43;;;;;;;4.93;1.10;;;;;;;;;;5014072;28;20064;-68
2023/07/23 09:24:12;;;;;;;6.68;2.05;;;;;;;;;;5026986;28;20053;-69
2023/07/23 09:26:43;;;;;;;6.35;1.70;;;;;;;;;;5018566;28;20488;-68
2023/07/23 09:29:16;;;;;;;7.60;2.40;;;;;;;;;;5023872;28;20782;-68
2023/07/23 09:31:45;;;;;;;7.05;2.33;;;;;;;;;;5025273;28;20203;-67
2023/07/23 09:34:12;;;;;;;5.97;1.55;;;;;;;;;;5011118;28;20041;-68
2023/07/23 09:36:40;;;;;;;6.72;2.30;;;;;;;;;;5025420;28;20045;-67
2023/07/23 09:39:09;;;;;;;7.35;1.83;;;;;;;;;;5010721;28;20053;-68
2023/07/23 09:41:37;;;;;;;6.97;1.60;;;;;;;;;;5028589;28;20048;-68
2023/07/23 09:44:07;;;;;;;6.20;1.98;;;;;;;;;;5020411;28;20051;-67
2023/07/23 09:46:39;;;;;;;5.53;1.35;;;;;;;;;;5021409;28;20055;-66
2023/07/23 09:49:07;;;;;;;4.47;1.30;;;;;;;;;;5004817;28;20407;-68
2023/07/23 09:51:37;;;;;;;5.72;1.52;;;;;;;;;;5024460;28;20132;-67
2023/07/23 09:54:05;;;;;;;6.03;1.93;;;;;;;;;;5054793;28;20070;-67
2023/07/23 09:56:34;;;;;;;6.30;1.58;;;;;;;;;;5065036;28;20044;-67
2023/07/23 09:59:06;;;;;;;7.55;1.67;;;;;;;;;;5060514;28;20446;-67
2023/07/23 10:01:34;;;;;;;6.22;1.50;;;;;;;;;;5052485;28;20060;-66
2023/07/23 10:04:03;;;;;;;7.00;1.60;;;;;;;;;;5039500;28;20387;-70
2023/07/23 10:06:31;;;;;;;6.20;1.80;;;;;;;;;;5065304;28;20581;-66
2023/07/23 10:09:02;;;;;;;6.93;2.30;;;;;;;;;;5030977;28;20051;-66
2023/07/23 10:11:33;;;;;;;5.35;1.60;;;;;;;;;;5066489;28;20090;-66
2023/07/23 10:14:02;;;;;;;6.70;2.05;;;;;;;;;;5055256;28;21576;-67
2023/07/23 10:16:34;;;;;;;6.28;1.73;;;;;;;;;;5069715;28;20044;-70
2023/07/23 10:19:04;;;;;;;5.87;1.73;;;;;;;;;;5057997;28;20418;-67
2023/07/23 10:21:33;;;;;;;4.82;1.27;;;;;;;;;;5061558;28;20596;-68
2023/07/23 10:24:01;;;;;;;7.45;1.70;;;;;;;;;;5059670;28;20044;-68
2023/07/23 10:26:30;;;;;;;5.53;1.73;;;;;;;;;;5059298;28;20381;-68
2023/07/23 10:28:58;;;;;;;6.13;2.30;;;;;;;;;;5063743;28;20048;-68
2023/07/23 10:31:27;;;;;;;7.67;1.70;;;;;;;;;;5053554;28;20074;-68
2023/07/23 10:33:57;;;;;;;8.88;1.50;;;;;;;;;;5059802;28;20139;-71
2023/07/23 10:36:25;;;;;;;6.03;1.60;;;;;;;;;;5054927;28;20047;-67
2023/07/23 10:39:16;;;;;;;5.75;1.70;;;;;;;;;;5064447;28;20086;-67
2023/07/23 10:41:48;;;;;;;4.47;1.55;;;;;;;;;;5064413;28;20054;-67
2023/07/23 10:44:21;;;;;;;3.77;0.90;;;;;;;;;;5039427;28;20059;-69
2023/07/23 10:46:49;;;;;;;3.83;0.80;;;;;;;;;;5053955;28;20319;-66
2023/07/23 10:49:23;;;;;;;5.72;1.45;;;;;;;;;;5061904;28;20040;-69
2023/07/23 10:51:51;;;;;;;4.68;1.40;;;;;;;;;;5051567;28;20114;-66
2023/07/23 10:54:19;;;;;;;3.95;1.08;;;;;;;;;;4712099;28;10000105;-66
2023/07/23 10:56:48;;;;;;;4.43;1.03;;;;;;;;;;5058861;28;20482;-66
2023/07/23 10:59:17;;;;;;;5.03;1.13;;;;;;;;;;5065022;28;22014;-66
2023/07/23 11:01:45;;;;;;;5.45;0.90;;;;;;;;;;5049632;28;20131;-69
2023/07/23 11:04:14;;;;;;;4.20;0.80;;;;;;;;;;5052118;28;20225;-68
2023/07/23 11:06:55;;;;;;;5.28;1.23;;;;;;;;;;5054523;28;20208;-68
2023/07/23 11:09:27;;;;;;;6.27;1.47;;;;;;;;;;5050366;28;20071;-67
2023/07/23 11:11:55;;;;;;;4.22;1.10;;;;;;;;;;5064912;28;20135;-66
2023/07/23 11:14:24;;;;;;;4.18;1.25;;;;;;;;;;5061162;28;20051;-67
2023/07/23 11:16:58;;;;;;;4.75;1.10;;;;;;;;;;5069329;28;20070;-67
2023/07/23 11:19:31;;;;;;;5.20;1.30;;;;;;;;;;5051817;28;20079;-66
2023/07/23 11:22:00;;;;;;;4.17;1.13;;;;;;;;;;5054588;28;20054;-67
2023/07/23 11:24:29;;;;;;;6.13;1.13;;;;;;;;;;5067661;28;20054;-68
2023/07/23 11:26:57;;;;;;;6.35;1.98;;;;;;;;;;5056791;28;20430;-69
2023/07/23 11:29:25;;;;;;;7.78;1.33;;;;;;;;;;5060285;28;20050;-69
2023/07/23 11:31:55;;;;;;;3.60;1.05;;;;;;;;;;5054710;28;20425;-66
2023/07/23 11:34:23;;;;;;;3.90;0.90;;;;;;;;;;5070298;28;20102;-66
2023/07/23 11:36:54;;;;;;;4.38;1.30;;;;;;;;;;5030914;28;20395;-66
2023/07/23 11:39:24;;;;;;;5.25;0.88;;;;;;;;;;5066429;28;20052;-66
2023/07/23 11:42:00;;;;;;;3.90;1.00;;;;;;;;;;5057857;28;20044;-65
2023/07/23 11:44:27;;;;;;;3.67;0.70;;;;;;;;;;5048618;28;20041;-67
2023/07/23 11:47:00;;;;;;;4.57;1.03;;;;;;;;;;5064001;28;20078;-67
2023/07/23 11:49:28;;;;;;;3.70;1.10;;;;;;;;;;5053742;28;20056;-67
2023/07/23 11:51:57;;;;;;;3.95;0.90;;;;;;;;;;5055218;28;20129;-68
2023/07/23 11:54:27;;;;;;;3.88;0.80;;;;;;;;;;5050070;28;20428;-67
2023/07/23 11:56:54;;;;;;;3.95;1.25;;;;;;;;;;5061673;28;20052;-67
2023/07/23 11:59:22;;;;;;;5.70;1.40;;;;;;;;;;5056805;28;20040;-66
2023/07/23 12:01:50;;;;;;;7.20;1.52;;;;;;;;;;5030423;28;20075;-62
2023/07/23 12:04:18;;;;;;;5.22;2.05;;;;;;;;;;5058013;28;20416;-63
2023/07/23 12:06:46;;;;;;;7.70;1.58;;;;;;;;;;5059422;28;20067;-63
2023/07/23 12:09:14;;;;;;;6.57;2.13;;;;;;;;;;5050959;28;20596;-63
2023/07/23 12:11:43;;;;;;;6.60;1.93;;;;;;;;;;4712102;28;9999819;-64
2023/07/23 12:14:15;;;;;;;6.82;1.73;;;;;;;;;;5055103;28;20050;-62
2023/07/23 12:16:44;;;;;;;5.32;1.92;;;;;;;;;;5060782;28;20040;-63
2023/07/23 12:19:13;;;;;;;5.50;2.20;;;;;;;;;;5051771;28;20044;-64
2023/07/23 12:21:42;;;;;;;7.82;2.60;;;;;;;;;;5062281;28;20048;-64
2023/07/23 12:24:11;;;;;;;5.70;1.60;;;;;;;;;;5056472;28;20402;-65
2023/07/23 12:26:39;;;;;;;4.97;1.40;;;;;;;;;;5053153;28;20372;-64
2023/07/23 12:29:08;;;;;;;4.90;1.90;;;;;;;;;;5038129;28;20518;-64
2023/07/23 12:31:40;;;;;;;7.20;2.20;;;;;;;;;;5066243;28;20052;-65
2023/07/23 12:34:09;;;;;;;6.55;1.50;;;;;;;;;;5048762;28;20711;-65
2023/07/23 12:36:37;;;;;;;4.50;1.73;;;;;;;;;;5061103;28;20587;-66
2023/07/23 12:39:05;;;;;;;6.18;1.83;;;;;;;;;;5050527;28;20048;-66
2023/07/23 12:41:33;;;;;;;6.53;2.10;;;;;;;;;;5064296;28;20040;-66
2023/07/23 12:44:01;;;;;;;5.13;1.87;;;;;;;;;;5062128;28;20129;-66
2023/07/23 12:46:30;;;;;;;5.03;2.38;;;;;;;;;;5064835;28;20046;-65
2023/07/23 12:48:58;;;;;;;4.88;2.10;;;;;;;;;;5043462;28;20059;-66
2023/07/23 12:51:26;;;;;;;5.45;2.08;;;;;;;;;;5054337;28;20040;-65
2023/07/23 12:53:54;;;;;;;5.90;1.80;;;;;;;;;;5042208;28;20055;-65
2023/07/23 12:56:22;;;;;;;9.43;1.60;;;;;;;;;;5061653;28;20044;-67
2023/07/23 12:58:55;;;;;;;4.18;1.45;;;;;;;;;;5048565;28;20047;-66
2023/07/23 13:01:23;;;;;;;5.75;2.00;;;;;;;;;;5047621;28;20456;-66
2023/07/23 13:03:52;;;;;;;5.50;2.25;;;;;;;;;;5058696;28;20044;-67
2023/07/23 13:06:20;;;;;;;7.80;2.38;;;;;;;;;;5050902;28;20506;-67
2023/07/23 13:08:48;;;;;;;6.83;1.80;;;;;;;;;;5057551;28;20056;-67
2023/07/23 13:11:15;;;;;;;7.60;1.80;;;;;;;;;;5060550;28;20048;-66
2023/07/23 13:13:43;;;;;;;8.38;2.13;;;;;;;;;;5052883;28;20040;-66
2023/07/23 13:16:11;;;;;;;5.53;1.85;;;;;;;;;;5053976;28;20150;-68
2023/07/23 13:18:38;;;;;;;4.95;1.58;;;;;;;;;;5044783;28;20044;-67
2023/07/23 13:21:08;;;;;;;5.80;2.10;;;;;;;;;;5060658;28;20463;-67
2023/07/23 13:23:36;;;;;;;5.50;1.40;;;;;;;;;;5059319;28;20570;-67
2023/07/23 13:26:04;;;;;;;4.25;1.27;;;;;;;;;;5060629;28;20048;-66
2023/07/23 13:28:31;;;;;;;5.53;1.63;;;;;;;;;;5063022;28;20063;-67
2023/07/23 13:30:59;;;;;;;5.85;1.70;;;;;;;;;;5058366;28;20063;-67
2023/07/23 13:33:27;;;;;;;6.30;1.70;;;;;;;;;;5058258;28;20445;-67
2023/07/23 13:35:54;;;;;;;6.43;2.00;;;;;;;;;;5046719;28;20109;-65
2023/07/23 13:38:24;;;;;;;6.03;1.58;;;;;;;;;;5057455;28;20062;-65
2023/07/23 13:40:52;;;;;;;4.25;1.77;;;;;;;;;;5054903;28;20123;-66
2023/07/23 13:43:19;;;;;;;5.00;1.40;;;;;;;;;;5047594;28;20135;-65
2023/07/23 13:45:47;;;;;;;5.60;1.60;;;;;;;;;;5047013;28;20040;-66
2023/07/23 13:48:15;;;;;;;4.90;1.52;;;;;;;;;;5058231;28;20591;-65
2023/07/23 13:50:43;;;;;;;5.18;1.33;;;;;;;;;;5062877;28;20048;-67
2023/07/23 13:53:18;;;;;;;4.97;1.58;;;;;;;;;;5052915;28;20052;-67
2023/07/23 13:55:47;;;;;;;4.30;1.30;;;;;;;;;;5056919;28;20490;-65
2023/07/23 13:58:15;;;;;;;5.27;1.53;;;;;;;;;;5015630;28;20040;-65
2023/07/23 14:00:43;;;;;;;6.35;1.70;;;;;;;;;;5047414;28;20071;-65
2023/07/23 14:03:10;;;;;;;4.30;1.45;;;;;;;;;;5067946;28;20082;-64
2023/07/23 14:05:38;;;;;;;5.68;1.45;;;;;;;;;;5054618;28;20570;-56
2023/07/23 14:08:06;;;;;;;4.63;1.60;;;;;;;;;;5045857;28;20073;-64
2023/07/23 14:10:36;;;;;;;4.50;1.40;;;;;;;;;;5042404;28;20052;-67
2023/07/23 14:13:05;;;;;;;4.30;1.40;;;;;;;;;;5061937;28;20220;-64
2023/07/23 14:15:33;;;;;;;4.43;1.20;;;;;;;;;;5058372;28;20056;-63
2023/07/23 14:18:01;;;;;;;4.80;1.23;;;;;;;;;;5048265;28;20040;-62
2023/07/23 14:20:29;;;;;;;4.30;1.60;;;;;;;;;;5046404;28;20098;-63
2023/07/23 14:22:56;;;;;;;4.20;1.37;;;;;;;;;;5044452;28;20091;-64
2023/07/23 14:25:24;;;;;;;3.92;1.38;;;;;;;;;;5062316;28;20051;-64
2023/07/23 14:27:52;;;;;;;5.57;1.50;;;;;;;;;;5048401;28;20048;-64
2023/07/23 14:30:21;;;;;;;5.07;1.40;;;;;;;;;;5060770;28;20109;-65
2023/07/23 14:32:49;;;;;;;4.75;1.60;;;;;;;;;;5060445;28;20052;-65
2023/07/23 14:35:17;;;;;;;4.23;1.30;;;;;;;;;;5058420;28;20048;-65
2023/07/23 14:37:45;;;;;;;4.60;1.30;;;;;;;;;;5045185;28;20636;-65
2023/07/23 14:40:13;;;;;;;4.20;1.30;;;;;;;;;;5057912;28;20851;-65
2023/07/23 14:42:40;;;;;;;6.30;1.70;;;;;;;;;;5060372;28;20052;-64
2023/07/23 14:45:08;;;;;;;5.28;1.20;;;;;;;;;;5057235;28;20044;-64
2023/07/23 14:47:37;;;;;;;4.17;1.80;;;;;;;;;;5059646;28;20048;-65
2023/07/23 14:50:05;;;;;;;5.18;1.73;;;;;;;;;;5047461;28;20048;-65
2023/07/23 14:52:33;;;;;;;4.72;1.38;;;;;;;;;;5055466;28;20087;-65